sensor_id;sensor_type;location;lat;lon;timestamp;temperature;humidity
21207;DHT22;10761;48.532;8.026;2024-03-08T00:01:48;4.80;99.90
21207;DHT22;10761;48.532;8.026;2024-03-08T00:04:13;4.80;9.80
21207;DHT22;10761;48.532;8.026;2024-03-08T00:06:41;4.90;1.00
21207;DHT22;10761;48.532;8.026;2024-03-08T00:09:06;4.90;1.00
21207;DHT22;10761;48.532;8.026;2024-03-08T00:11:33;4.90;1.00
21207;DHT22;10761;48.532;8.026;2024-03-08T00:14:00;4.90;1.00
21207;DHT22;10761;48.532;8.026;2024-03-08T00:16:25;5.10;99.90
21207;DHT22;10761;48.532;8.026;2024-03-08T00:18:51;5.20;1.00
21207;DHT22;10761;48.532;8.026;2024-03-08T00:21:16;5.20;1.00
21207;DHT22;10761;48.532;8.026;2024-03-08T00:23:42;5.10;99.90
21207;DHT22;10761;48.532;8.026;2024-03-08T00:26:08;5.00;99.90
21207;DHT22;10761;48.532;8.026;2024-03-08T00:28:33;5.00;99.90
21207;DHT22;10761;48.532;8.026;2024-03-08T00:31:00;5.00;99.90
21207;DHT22;10761;48.532;8.026;2024-03-08T00:33:25;4.90;1.00
21207;DHT22;10761;48.532;8.026;2024-03-08T00:35:53;4.90;1.00
21207;DHT22;10761;48.532;8.026;2024-03-08T00:38:18;4.80;1.00
21207;DHT22;10761;48.532;8.026;2024-03-08T00:40:44;4.90;1.00
21207;DHT22;10761;48.532;8.026;2024-03-08T00:43:10;4.90;1.00
21207;DHT22;10761;48.532;8.026;2024-03-08T00:45:36;4.90;1.00
21207;DHT22;10761;48.532;8.026;2024-03-08T00:48:03;4.80;1.00
21207;DHT22;10761;48.532;8.026;2024-03-08T00:50:28;4.80;1.00
21207;DHT22;10761;48.532;8.026;2024-03-08T00:52:54;4.70;1.00
21207;DHT22;10761;48.532;8.026;2024-03-08T00:55:20;4.60;1.00
21207;DHT22;10761;48.532;8.026;2024-03-08T00:57:45;4.60;1.00
21207;DHT22;10761;48.532;8.026;2024-03-08T01:00:11;4.60;1.00
21207;DHT22;10761;48.532;8.026;2024-03-08T01:02:38;4.70;1.00
21207;DHT22;10761;48.532;8.026;2024-03-08T01:05:05;4.70;99.90
21207;DHT22;10761;48.532;8.026;2024-03-08T01:07:33;4.70;99.90
21207;DHT22;10761;48.532;8.026;2024-03-08T01:09:59;4.70;1.00
21207;DHT22;10761;48.532;8.026;2024-03-08T01:12:26;4.70;99.90
21207;DHT22;10761;48.532;8.026;2024-03-08T01:14:51;4.70;99.90
21207;DHT22;10761;48.532;8.026;2024-03-08T01:17:17;4.70;99.90
21207;DHT22;10761;48.532;8.026;2024-03-08T01:19:42;4.70;1.00
21207;DHT22;10761;48.532;8.026;2024-03-08T01:22:10;4.70;1.00
21207;DHT22;10761;48.532;8.026;2024-03-08T01:24:36;4.70;99.90
21207;DHT22;10761;48.532;8.026;2024-03-08T01:27:02;4.70;1.00
21207;DHT22;10761;48.532;8.026;2024-03-08T01:29:28;4.60;52.20
21207;DHT22;10761;48.532;8.026;2024-03-08T01:31:57;4.50;99.90
21207;DHT22;10761;48.532;8.026;2024-03-08T01:34:25;4.60;1.00
21207;DHT22;10761;48.532;8.026;2024-03-08T01:36:51;4.70;99.90
21207;DHT22;10761;48.532;8.026;2024-03-08T01:39:16;4.80;1.00
21207;DHT22;10761;48.532;8.026;2024-03-08T01:41:42;4.80;1.00
21207;DHT22;10761;48.532;8.026;2024-03-08T01:44:08;4.60;1.00
21207;DHT22;10761;48.532;8.026;2024-03-08T01:46:35;4.70;1.00
21207;DHT22;10761;48.532;8.026;2024-03-08T01:49:01;4.50;1.00
21207;DHT22;10761;48.532;8.026;2024-03-08T01:51:28;4.40;1.00
21207;DHT22;10761;48.532;8.026;2024-03-08T01:53:55;4.50;99.90
21207;DHT22;10761;48.532;8.026;2024-03-08T01:56:23;4.50;1.00
21207;DHT22;10761;48.532;8.026;2024-03-08T01:58:50;4.40;1.00
21207;DHT22;10761;48.532;8.026;2024-03-08T02:01:16;4.30;1.00
21207;DHT22;10761;48.532;8.026;2024-03-08T02:03:42;4.30;1.00
21207;DHT22;10761;48.532;8.026;2024-03-08T02:06:11;4.20;1.00
21207;DHT22;10761;48.532;8.026;2024-03-08T02:08:37;4.20;1.00
21207;DHT22;10761;48.532;8.026;2024-03-08T02:11:04;4.10;1.00
21207;DHT22;10761;48.532;8.026;2024-03-08T02:13:30;4.00;99.90
21207;DHT22;10761;48.532;8.026;2024-03-08T02:16:00;3.90;1.00
21207;DHT22;10761;48.532;8.026;2024-03-08T02:18:27;3.80;1.00
21207;DHT22;10761;48.532;8.026;2024-03-08T02:20:56;3.70;99.90
21207;DHT22;10761;48.532;8.026;2024-03-08T02:23:22;3.70;99.90
21207;DHT22;10761;48.532;8.026;2024-03-08T02:25:50;3.60;99.90
21207;DHT22;10761;48.532;8.026;2024-03-08T02:28:16;3.60;99.90
21207;DHT22;10761;48.532;8.026;2024-03-08T02:30:44;3.60;1.00
21207;DHT22;10761;48.532;8.026;2024-03-08T02:33:14;3.60;1.00
21207;DHT22;10761;48.532;8.026;2024-03-08T02:35:42;3.70;1.00
21207;DHT22;10761;48.532;8.026;2024-03-08T02:38:14;3.70;1.00
21207;DHT22;10761;48.532;8.026;2024-03-08T02:40:47;3.70;1.00
21207;DHT22;10761;48.532;8.026;2024-03-08T02:43:14;3.70;99.90
21207;DHT22;10761;48.532;8.026;2024-03-08T02:45:40;3.80;99.90
21207;DHT22;10761;48.532;8.026;2024-03-08T02:48:07;3.90;1.00
21207;DHT22;10761;48.532;8.026;2024-03-08T02:50:34;4.00;1.00
21207;DHT22;10761;48.532;8.026;2024-03-08T02:53:03;4.10;99.90
21207;DHT22;10761;48.532;8.026;2024-03-08T02:55:30;4.20;99.90
21207;DHT22;10761;48.532;8.026;2024-03-08T02:57:56;4.30;1.00
21207;DHT22;10761;48.532;8.026;2024-03-08T03:00:23;4.40;1.00
21207;DHT22;10761;48.532;8.026;2024-03-08T03:02:51;4.40;99.90
21207;DHT22;10761;48.532;8.026;2024-03-08T03:05:20;4.40;1.00
21207;DHT22;10761;48.532;8.026;2024-03-08T03:07:45;4.30;1.00
21207;DHT22;10761;48.532;8.026;2024-03-08T03:10:11;4.20;62.90
21207;DHT22;10761;48.532;8.026;2024-03-08T03:12:37;4.10;1.00
21207;DHT22;10761;48.532;8.026;2024-03-08T03:15:04;4.00;1.00
21207;DHT22;10761;48.532;8.026;2024-03-08T03:17:29;4.00;1.00
21207;DHT22;10761;48.532;8.026;2024-03-08T03:19:55;4.10;98.30
21207;DHT22;10761;48.532;8.026;2024-03-08T03:22:21;4.10;1.00
21207;DHT22;10761;48.532;8.026;2024-03-08T03:24:47;4.10;1.00
21207;DHT22;10761;48.532;8.026;2024-03-08T03:27:13;4.10;1.00
21207;DHT22;10761;48.532;8.026;2024-03-08T03:29:41;4.10;1.00
21207;DHT22;10761;48.532;8.026;2024-03-08T03:32:14;4.10;1.00
21207;DHT22;10761;48.532;8.026;2024-03-08T03:34:40;4.10;1.00
21207;DHT22;10761;48.532;8.026;2024-03-08T03:37:07;4.10;1.00
21207;DHT22;10761;48.532;8.026;2024-03-08T03:39:34;4.10;1.00
21207;DHT22;10761;48.532;8.026;2024-03-08T03:42:00;4.00;99.90
21207;DHT22;10761;48.532;8.026;2024-03-08T03:44:28;4.00;99.90
21207;DHT22;10761;48.532;8.026;2024-03-08T03:46:53;4.00;99.90
21207;DHT22;10761;48.532;8.026;2024-03-08T03:49:19;4.00;99.90
21207;DHT22;10761;48.532;8.026;2024-03-08T03:51:45;3.90;1.00
21207;DHT22;10761;48.532;8.026;2024-03-08T03:54:11;3.80;1.00
21207;DHT22;10761;48.532;8.026;2024-03-08T03:56:38;3.70;42.20
21207;DHT22;10761;48.532;8.026;2024-03-08T03:59:05;3.60;99.90
21207;DHT22;10761;48.532;8.026;2024-03-08T04:01:32;3.70;99.90
21207;DHT22;10761;48.532;8.026;2024-03-08T04:03:57;3.70;27.10
21207;DHT22;10761;48.532;8.026;2024-03-08T04:06:23;3.70;1.00
21207;DHT22;10761;48.532;8.026;2024-03-08T04:08:49;3.70;1.00
21207;DHT22;10761;48.532;8.026;2024-03-08T04:11:15;3.60;99.90
21207;DHT22;10761;48.532;8.026;2024-03-08T04:13:42;3.50;99.90
21207;DHT22;10761;48.532;8.026;2024-03-08T04:16:08;3.50;99.90
21207;DHT22;10761;48.532;8.026;2024-03-08T04:18:34;3.50;1.00
21207;DHT22;10761;48.532;8.026;2024-03-08T04:21:01;3.50;99.90
21207;DHT22;10761;48.532;8.026;2024-03-08T04:23:27;3.40;99.90
21207;DHT22;10761;48.532;8.026;2024-03-08T04:25:54;3.30;1.00
21207;DHT22;10761;48.532;8.026;2024-03-08T04:28:19;3.10;1.00
21207;DHT22;10761;48.532;8.026;2024-03-08T04:30:45;3.10;1.00
21207;DHT22;10761;48.532;8.026;2024-03-08T04:33:11;3.00;1.00
21207;DHT22;10761;48.532;8.026;2024-03-08T04:35:37;3.00;1.00
21207;DHT22;10761;48.532;8.026;2024-03-08T04:38:03;2.90;1.00
21207;DHT22;10761;48.532;8.026;2024-03-08T04:40:30;2.80;1.00
21207;DHT22;10761;48.532;8.026;2024-03-08T04:42:58;2.70;1.00
21207;DHT22;10761;48.532;8.026;2024-03-08T04:45:24;2.70;1.00
21207;DHT22;10761;48.532;8.026;2024-03-08T04:47:51;2.70;1.00
21207;DHT22;10761;48.532;8.026;2024-03-08T04:50:18;2.80;1.00
21207;DHT22;10761;48.532;8.026;2024-03-08T04:52:43;2.90;1.00
21207;DHT22;10761;48.532;8.026;2024-03-08T04:55:09;2.90;1.00
21207;DHT22;10761;48.532;8.026;2024-03-08T04:57:35;3.00;1.00
21207;DHT22;10761;48.532;8.026;2024-03-08T05:00:01;3.10;1.00
21207;DHT22;10761;48.532;8.026;2024-03-08T05:02:27;3.00;1.00
21207;DHT22;10761;48.532;8.026;2024-03-08T05:04:52;3.00;1.00
21207;DHT22;10761;48.532;8.026;2024-03-08T05:07:18;3.00;1.00
21207;DHT22;10761;48.532;8.026;2024-03-08T05:09:44;2.90;1.00
21207;DHT22;10761;48.532;8.026;2024-03-08T05:12:17;2.90;1.00
21207;DHT22;10761;48.532;8.026;2024-03-08T05:14:42;3.00;1.00
21207;DHT22;10761;48.532;8.026;2024-03-08T05:17:08;3.10;1.00
21207;DHT22;10761;48.532;8.026;2024-03-08T05:19:36;3.20;1.00
21207;DHT22;10761;48.532;8.026;2024-03-08T05:22:01;3.20;1.00
21207;DHT22;10761;48.532;8.026;2024-03-08T05:24:28;3.30;1.00
21207;DHT22;10761;48.532;8.026;2024-03-08T05:26:55;3.30;1.00
21207;DHT22;10761;48.532;8.026;2024-03-08T05:29:20;3.30;1.00
21207;DHT22;10761;48.532;8.026;2024-03-08T05:31:50;3.40;1.00
21207;DHT22;10761;48.532;8.026;2024-03-08T05:34:17;3.40;1.00
21207;DHT22;10761;48.532;8.026;2024-03-08T05:36:45;3.30;1.00
21207;DHT22;10761;48.532;8.026;2024-03-08T05:39:12;3.30;1.00
21207;DHT22;10761;48.532;8.026;2024-03-08T05:41:41;3.10;1.00
21207;DHT22;10761;48.532;8.026;2024-03-08T05:44:08;3.30;1.00
21207;DHT22;10761;48.532;8.026;2024-03-08T05:46:34;3.30;1.00
21207;DHT22;10761;48.532;8.026;2024-03-08T05:49:01;3.30;1.00
21207;DHT22;10761;48.532;8.026;2024-03-08T05:51:34;3.20;1.00
21207;DHT22;10761;48.532;8.026;2024-03-08T05:54:01;3.20;1.00
21207;DHT22;10761;48.532;8.026;2024-03-08T05:56:28;3.20;1.00
21207;DHT22;10761;48.532;8.026;2024-03-08T05:58:54;3.20;1.00
21207;DHT22;10761;48.532;8.026;2024-03-08T06:01:19;3.20;1.00
21207;DHT22;10761;48.532;8.026;2024-03-08T06:03:45;3.20;1.00
21207;DHT22;10761;48.532;8.026;2024-03-08T06:06:13;3.20;1.00
21207;DHT22;10761;48.532;8.026;2024-03-08T06:08:38;3.20;1.00
21207;DHT22;10761;48.532;8.026;2024-03-08T06:11:04;3.20;1.00
21207;DHT22;10761;48.532;8.026;2024-03-08T06:13:32;3.10;1.00
21207;DHT22;10761;48.532;8.026;2024-03-08T06:15:57;3.10;1.00
21207;DHT22;10761;48.532;8.026;2024-03-08T06:18:23;3.10;1.00
21207;DHT22;10761;48.532;8.026;2024-03-08T06:20:48;3.10;1.00
21207;DHT22;10761;48.532;8.026;2024-03-08T06:23:14;3.10;1.00
21207;DHT22;10761;48.532;8.026;2024-03-08T06:25:44;3.10;1.00
21207;DHT22;10761;48.532;8.026;2024-03-08T06:28:09;3.10;1.00
21207;DHT22;10761;48.532;8.026;2024-03-08T06:30:35;3.20;1.00
21207;DHT22;10761;48.532;8.026;2024-03-08T06:33:01;3.20;1.00
21207;DHT22;10761;48.532;8.026;2024-03-08T06:35:27;3.20;1.00
21207;DHT22;10761;48.532;8.026;2024-03-08T06:37:53;3.20;1.00
21207;DHT22;10761;48.532;8.026;2024-03-08T06:40:18;3.30;1.00
21207;DHT22;10761;48.532;8.026;2024-03-08T06:42:44;3.30;1.00
21207;DHT22;10761;48.532;8.026;2024-03-08T06:45:10;3.40;1.00
21207;DHT22;10761;48.532;8.026;2024-03-08T06:47:36;3.40;1.00
21207;DHT22;10761;48.532;8.026;2024-03-08T06:50:02;3.50;1.00
21207;DHT22;10761;48.532;8.026;2024-03-08T06:52:28;3.50;1.00
21207;DHT22;10761;48.532;8.026;2024-03-08T06:54:53;3.50;1.00
21207;DHT22;10761;48.532;8.026;2024-03-08T06:57:19;3.60;1.00
21207;DHT22;10761;48.532;8.026;2024-03-08T06:59:48;3.60;1.00
21207;DHT22;10761;48.532;8.026;2024-03-08T07:02:13;3.60;1.00
21207;DHT22;10761;48.532;8.026;2024-03-08T07:04:39;3.70;1.00
21207;DHT22;10761;48.532;8.026;2024-03-08T07:07:05;3.80;99.90
21207;DHT22;10761;48.532;8.026;2024-03-08T07:09:30;3.90;99.90
21207;DHT22;10761;48.532;8.026;2024-03-08T07:11:56;4.00;99.90
21207;DHT22;10761;48.532;8.026;2024-03-08T07:14:23;4.00;1.00
21207;DHT22;10761;48.532;8.026;2024-03-08T07:16:49;4.00;99.90
21207;DHT22;10761;48.532;8.026;2024-03-08T07:19:15;4.10;1.00
21207;DHT22;10761;48.532;8.026;2024-03-08T07:21:44;4.40;99.90
21207;DHT22;10761;48.532;8.026;2024-03-08T07:24:10;4.70;1.00
21207;DHT22;10761;48.532;8.026;2024-03-08T07:26:42;4.90;1.00
21207;DHT22;10761;48.532;8.026;2024-03-08T07:29:08;5.20;1.00
21207;DHT22;10761;48.532;8.026;2024-03-08T07:31:33;5.60;1.00
21207;DHT22;10761;48.532;8.026;2024-03-08T07:34:18;5.90;99.90
21207;DHT22;10761;48.532;8.026;2024-03-08T07:36:43;6.00;1.00
21207;DHT22;10761;48.532;8.026;2024-03-08T07:39:09;6.30;1.00
21207;DHT22;10761;48.532;8.026;2024-03-08T07:41:40;6.80;1.00
21207;DHT22;10761;48.532;8.026;2024-03-08T07:44:07;7.10;1.00
21207;DHT22;10761;48.532;8.026;2024-03-08T07:46:32;7.50;1.00
21207;DHT22;10761;48.532;8.026;2024-03-08T07:48:59;7.80;99.90
21207;DHT22;10761;48.532;8.026;2024-03-08T07:51:25;7.90;77.60
21207;DHT22;10761;48.532;8.026;2024-03-08T07:53:51;8.10;1.00
21207;DHT22;10761;48.532;8.026;2024-03-08T07:56:16;8.30;51.90
21207;DHT22;10761;48.532;8.026;2024-03-08T07:58:44;8.40;1.00
21207;DHT22;10761;48.532;8.026;2024-03-08T08:01:16;8.50;1.00
21207;DHT22;10761;48.532;8.026;2024-03-08T08:03:42;8.60;1.00
21207;DHT22;10761;48.532;8.026;2024-03-08T08:06:07;8.80;1.00
21207;DHT22;10761;48.532;8.026;2024-03-08T08:08:33;9.20;99.90
21207;DHT22;10761;48.532;8.026;2024-03-08T08:10:59;9.20;1.00
21207;DHT22;10761;48.532;8.026;2024-03-08T08:13:25;9.40;43.50
21207;DHT22;10761;48.532;8.026;2024-03-08T08:15:50;9.20;99.90
21207;DHT22;10761;48.532;8.026;2024-03-08T08:18:16;8.90;99.90
21207;DHT22;10761;48.532;8.026;2024-03-08T08:20:42;9.00;99.90
21207;DHT22;10761;48.532;8.026;2024-03-08T08:23:08;9.00;99.90
21207;DHT22;10761;48.532;8.026;2024-03-08T08:25:37;8.60;99.90
21207;DHT22;10761;48.532;8.026;2024-03-08T08:28:03;8.30;1.00
21207;DHT22;10761;48.532;8.026;2024-03-08T08:30:29;8.70;1.00
21207;DHT22;10761;48.532;8.026;2024-03-08T08:32:54;9.30;1.00
21207;DHT22;10761;48.532;8.026;2024-03-08T08:35:20;9.80;99.90
21207;DHT22;10761;48.532;8.026;2024-03-08T08:37:47;9.80;99.90
21207;DHT22;10761;48.532;8.026;2024-03-08T08:40:13;9.70;99.90
21207;DHT22;10761;48.532;8.026;2024-03-08T08:42:43;9.60;99.90
21207;DHT22;10761;48.532;8.026;2024-03-08T08:45:09;9.60;1.00
21207;DHT22;10761;48.532;8.026;2024-03-08T08:47:35;10.10;99.90
21207;DHT22;10761;48.532;8.026;2024-03-08T08:50:01;10.50;1.00
21207;DHT22;10761;48.532;8.026;2024-03-08T08:52:27;11.00;1.00
21207;DHT22;10761;48.532;8.026;2024-03-08T08:54:54;11.40;1.00
21207;DHT22;10761;48.532;8.026;2024-03-08T08:57:20;11.70;1.00
21207;DHT22;10761;48.532;8.026;2024-03-08T08:59:46;12.10;1.00
21207;DHT22;10761;48.532;8.026;2024-03-08T09:02:11;12.50;1.00
21207;DHT22;10761;48.532;8.026;2024-03-08T09:04:38;12.00;1.00
21207;DHT22;10761;48.532;8.026;2024-03-08T09:07:03;12.30;1.00
21207;DHT22;10761;48.532;8.026;2024-03-08T09:09:32;12.70;1.00
21207;DHT22;10761;48.532;8.026;2024-03-08T09:11:57;13.30;1.00
21207;DHT22;10761;48.532;8.026;2024-03-08T09:14:23;12.60;1.00
21207;DHT22;10761;48.532;8.026;2024-03-08T09:16:50;12.70;1.00
21207;DHT22;10761;48.532;8.026;2024-03-08T09:19:15;12.70;1.00
21207;DHT22;10761;48.532;8.026;2024-03-08T09:21:42;13.20;1.00
21207;DHT22;10761;48.532;8.026;2024-03-08T09:24:08;12.80;1.00
21207;DHT22;10761;48.532;8.026;2024-03-08T09:26:33;12.80;1.00
21207;DHT22;10761;48.532;8.026;2024-03-08T09:28:59;12.50;1.00
21207;DHT22;10761;48.532;8.026;2024-03-08T09:31:25;12.60;1.00
21207;DHT22;10761;48.532;8.026;2024-03-08T09:33:51;12.70;1.00
21207;DHT22;10761;48.532;8.026;2024-03-08T09:36:17;12.90;1.00
21207;DHT22;10761;48.532;8.026;2024-03-08T09:38:43;12.70;1.00
21207;DHT22;10761;48.532;8.026;2024-03-08T09:41:09;12.70;1.00
21207;DHT22;10761;48.532;8.026;2024-03-08T09:43:36;13.20;1.00
21207;DHT22;10761;48.532;8.026;2024-03-08T09:46:03;13.70;1.00
21207;DHT22;10761;48.532;8.026;2024-03-08T09:48:29;13.30;99.90
21207;DHT22;10761;48.532;8.026;2024-03-08T09:50:55;13.60;99.90
21207;DHT22;10761;48.532;8.026;2024-03-08T09:53:22;13.20;99.90
21207;DHT22;10761;48.532;8.026;2024-03-08T09:55:48;13.30;99.90
21207;DHT22;10761;48.532;8.026;2024-03-08T09:58:15;13.20;99.90
21207;DHT22;10761;48.532;8.026;2024-03-08T10:00:43;13.30;99.90
21207;DHT22;10761;48.532;8.026;2024-03-08T10:03:08;13.20;99.90
21207;DHT22;10761;48.532;8.026;2024-03-08T10:05:34;13.40;99.90
21207;DHT22;10761;48.532;8.026;2024-03-08T10:08:00;13.60;99.90
21207;DHT22;10761;48.532;8.026;2024-03-08T10:10:26;13.60;99.90
21207;DHT22;10761;48.532;8.026;2024-03-08T10:12:51;13.60;99.90
21207;DHT22;10761;48.532;8.026;2024-03-08T10:15:17;13.60;99.90
21207;DHT22;10761;48.532;8.026;2024-03-08T10:17:43;13.70;99.90
21207;DHT22;10761;48.532;8.026;2024-03-08T10:20:18;13.60;99.90
21207;DHT22;10761;48.532;8.026;2024-03-08T10:22:44;13.60;99.90
21207;DHT22;10761;48.532;8.026;2024-03-08T10:25:13;13.10;99.90
21207;DHT22;10761;48.532;8.026;2024-03-08T10:27:39;13.10;99.90
21207;DHT22;10761;48.532;8.026;2024-03-08T10:30:14;13.30;99.90
21207;DHT22;10761;48.532;8.026;2024-03-08T10:32:41;13.80;99.90
21207;DHT22;10761;48.532;8.026;2024-03-08T10:35:10;13.50;99.90
21207;DHT22;10761;48.532;8.026;2024-03-08T10:37:45;13.80;99.90
21207;DHT22;10761;48.532;8.026;2024-03-08T10:40:19;13.70;99.90
21207;DHT22;10761;48.532;8.026;2024-03-08T10:42:58;13.80;99.90
21207;DHT22;10761;48.532;8.026;2024-03-08T10:48:31;14.20;99.90
21207;DHT22;10761;48.532;8.026;2024-03-08T10:51:01;14.00;99.90
21207;DHT22;10761;48.532;8.026;2024-03-08T10:53:27;14.20;99.90
21207;DHT22;10761;48.532;8.026;2024-03-08T10:55:56;14.40;99.90
21207;DHT22;10761;48.532;8.026;2024-03-08T10:58:24;14.20;99.90
21207;DHT22;10761;48.532;8.026;2024-03-08T11:00:53;14.30;99.90
21207;DHT22;10761;48.532;8.026;2024-03-08T11:06:29;13.90;99.90
21207;DHT22;10761;48.532;8.026;2024-03-08T11:08:55;13.70;99.90
21207;DHT22;10761;48.532;8.026;2024-03-08T11:11:30;13.90;99.90
21207;DHT22;10761;48.532;8.026;2024-03-08T11:13:57;13.80;99.90
21207;DHT22;10761;48.532;8.026;2024-03-08T11:19:44;13.50;99.90
21207;DHT22;10761;48.532;8.026;2024-03-08T11:21:47;13.90;99.90
21207;DHT22;10761;48.532;8.026;2024-03-08T11:24:14;14.60;99.90
21207;DHT22;10761;48.532;8.026;2024-03-08T11:26:41;14.90;99.90
21207;DHT22;10761;48.532;8.026;2024-03-08T11:32:12;15.00;99.90
21207;DHT22;10761;48.532;8.026;2024-03-08T11:34:40;14.90;99.90
21207;DHT22;10761;48.532;8.026;2024-03-08T11:37:19;15.20;99.90
21207;DHT22;10761;48.532;8.026;2024-03-08T11:39:50;15.20;99.90
21207;DHT22;10761;48.532;8.026;2024-03-08T11:42:17;15.30;99.90
21207;DHT22;10761;48.532;8.026;2024-03-08T11:44:46;15.50;99.90
21207;DHT22;10761;48.532;8.026;2024-03-08T11:47:13;15.20;99.90
21207;DHT22;10761;48.532;8.026;2024-03-08T11:49:40;15.70;99.90
21207;DHT22;10761;48.532;8.026;2024-03-08T11:52:11;16.20;99.90
21207;DHT22;10761;48.532;8.026;2024-03-08T11:54:38;15.60;99.90
21207;DHT22;10761;48.532;8.026;2024-03-08T11:57:04;16.10;99.90
21207;DHT22;10761;48.532;8.026;2024-03-08T11:59:31;15.90;99.90
21207;DHT22;10761;48.532;8.026;2024-03-08T12:02:07;16.60;99.90
21207;DHT22;10761;48.532;8.026;2024-03-08T12:04:35;16.60;99.90
21207;DHT22;10761;48.532;8.026;2024-03-08T12:07:02;17.30;99.90
21207;DHT22;10761;48.532;8.026;2024-03-08T12:09:28;17.60;99.90
21207;DHT22;10761;48.532;8.026;2024-03-08T12:11:54;17.70;99.90
21207;DHT22;10761;48.532;8.026;2024-03-08T12:14:20;18.10;99.90
21207;DHT22;10761;48.532;8.026;2024-03-08T12:16:46;18.00;99.90
21207;DHT22;10761;48.532;8.026;2024-03-08T12:19:13;18.50;94.00
21207;DHT22;10761;48.532;8.026;2024-03-08T12:21:39;18.20;62.70
21207;DHT22;10761;48.532;8.026;2024-03-08T12:24:15;18.50;63.80
21207;DHT22;10761;48.532;8.026;2024-03-08T12:26:44;19.10;54.70
21207;DHT22;10761;48.532;8.026;2024-03-08T12:29:15;19.20;21.10
21207;DHT22;10761;48.532;8.026;2024-03-08T12:31:42;18.80;7.80
21207;DHT22;10761;48.532;8.026;2024-03-08T12:34:08;19.00;2.10
21207;DHT22;10761;48.532;8.026;2024-03-08T12:36:35;19.60;2.60
21207;DHT22;10761;48.532;8.026;2024-03-08T12:39:04;19.40;1.00
21207;DHT22;10761;48.532;8.026;2024-03-08T12:41:31;19.70;1.00
21207;DHT22;10761;48.532;8.026;2024-03-08T12:43:58;20.00;1.00
21207;DHT22;10761;48.532;8.026;2024-03-08T12:46:23;20.00;1.00
21207;DHT22;10761;48.532;8.026;2024-03-08T12:48:51;20.50;1.00
21207;DHT22;10761;48.532;8.026;2024-03-08T12:51:21;21.30;1.00
21207;DHT22;10761;48.532;8.026;2024-03-08T12:53:47;21.10;1.00
21207;DHT22;10761;48.532;8.026;2024-03-08T12:56:14;20.90;1.00
21207;DHT22;10761;48.532;8.026;2024-03-08T12:58:41;21.30;1.00
21207;DHT22;10761;48.532;8.026;2024-03-08T13:01:06;21.20;1.00
21207;DHT22;10761;48.532;8.026;2024-03-08T13:03:34;21.90;1.00
21207;DHT22;10761;48.532;8.026;2024-03-08T13:06:04;22.30;1.00
21207;DHT22;10761;48.532;8.026;2024-03-08T13:08:37;22.30;1.00
21207;DHT22;10761;48.532;8.026;2024-03-08T13:11:07;22.50;1.00
21207;DHT22;10761;48.532;8.026;2024-03-08T13:13:33;22.50;1.00
21207;DHT22;10761;48.532;8.026;2024-03-08T13:16:02;22.70;1.00
21207;DHT22;10761;48.532;8.026;2024-03-08T13:18:28;22.80;1.00
21207;DHT22;10761;48.532;8.026;2024-03-08T13:20:54;22.90;1.00
21207;DHT22;10761;48.532;8.026;2024-03-08T13:23:20;22.90;1.00
21207;DHT22;10761;48.532;8.026;2024-03-08T13:25:46;22.80;1.00
21207;DHT22;10761;48.532;8.026;2024-03-08T13:28:14;22.80;1.00
21207;DHT22;10761;48.532;8.026;2024-03-08T13:30:40;22.90;1.00
21207;DHT22;10761;48.532;8.026;2024-03-08T13:33:07;22.80;1.00
21207;DHT22;10761;48.532;8.026;2024-03-08T13:35:32;23.40;1.00
21207;DHT22;10761;48.532;8.026;2024-03-08T13:37:59;23.10;1.00
21207;DHT22;10761;48.532;8.026;2024-03-08T13:40:28;22.20;1.00
21207;DHT22;10761;48.532;8.026;2024-03-08T13:42:54;22.10;1.00
21207;DHT22;10761;48.532;8.026;2024-03-08T13:45:19;21.90;1.00
21207;DHT22;10761;48.532;8.026;2024-03-08T13:47:49;21.80;1.00
21207;DHT22;10761;48.532;8.026;2024-03-08T13:50:17;21.40;1.00
21207;DHT22;10761;48.532;8.026;2024-03-08T13:52:47;21.70;1.00
21207;DHT22;10761;48.532;8.026;2024-03-08T13:55:15;22.00;1.00
21207;DHT22;10761;48.532;8.026;2024-03-08T13:57:40;22.40;1.00
21207;DHT22;10761;48.532;8.026;2024-03-08T14:00:06;22.50;1.00
21207;DHT22;10761;48.532;8.026;2024-03-08T14:02:32;22.80;1.00
21207;DHT22;10761;48.532;8.026;2024-03-08T14:04:59;23.00;1.00
21207;DHT22;10761;48.532;8.026;2024-03-08T14:07:27;23.10;1.00
21207;DHT22;10761;48.532;8.026;2024-03-08T14:09:54;23.30;1.00
21207;DHT22;10761;48.532;8.026;2024-03-08T14:12:20;23.90;1.00
21207;DHT22;10761;48.532;8.026;2024-03-08T14:14:46;24.30;1.00
21207;DHT22;10761;48.532;8.026;2024-03-08T14:17:11;23.90;1.00
21207;DHT22;10761;48.532;8.026;2024-03-08T14:19:42;23.40;1.00
21207;DHT22;10761;48.532;8.026;2024-03-08T14:22:07;23.60;1.00
21207;DHT22;10761;48.532;8.026;2024-03-08T14:24:36;24.00;1.00
21207;DHT22;10761;48.532;8.026;2024-03-08T14:27:02;23.90;1.00
21207;DHT22;10761;48.532;8.026;2024-03-08T14:29:29;23.50;1.00
21207;DHT22;10761;48.532;8.026;2024-03-08T14:31:58;23.40;1.00
21207;DHT22;10761;48.532;8.026;2024-03-08T14:34:25;23.50;1.00
21207;DHT22;10761;48.532;8.026;2024-03-08T14:36:53;22.70;1.00
21207;DHT22;10761;48.532;8.026;2024-03-08T14:39:19;22.10;1.00
21207;DHT22;10761;48.532;8.026;2024-03-08T14:41:47;21.80;1.00
21207;DHT22;10761;48.532;8.026;2024-03-08T14:44:13;21.70;1.00
21207;DHT22;10761;48.532;8.026;2024-03-08T14:46:40;21.50;1.00
21207;DHT22;10761;48.532;8.026;2024-03-08T14:49:05;21.50;1.00
21207;DHT22;10761;48.532;8.026;2024-03-08T14:51:31;21.60;1.00
21207;DHT22;10761;48.532;8.026;2024-03-08T14:53:58;22.30;1.00
21207;DHT22;10761;48.532;8.026;2024-03-08T14:56:24;22.30;1.00
21207;DHT22;10761;48.532;8.026;2024-03-08T14:58:52;22.70;1.00
21207;DHT22;10761;48.532;8.026;2024-03-08T15:01:19;22.80;1.00
21207;DHT22;10761;48.532;8.026;2024-03-08T15:03:49;23.00;1.00
21207;DHT22;10761;48.532;8.026;2024-03-08T15:06:15;23.00;1.00
21207;DHT22;10761;48.532;8.026;2024-03-08T15:08:45;22.90;1.00
21207;DHT22;10761;48.532;8.026;2024-03-08T15:11:11;23.00;1.00
21207;DHT22;10761;48.532;8.026;2024-03-08T15:13:37;22.80;1.00
21207;DHT22;10761;48.532;8.026;2024-03-08T15:16:07;23.10;1.00
21207;DHT22;10761;48.532;8.026;2024-03-08T15:18:34;23.40;1.00
21207;DHT22;10761;48.532;8.026;2024-03-08T15:21:01;23.70;1.00
21207;DHT22;10761;48.532;8.026;2024-03-08T15:23:26;23.80;1.00
21207;DHT22;10761;48.532;8.026;2024-03-08T15:25:52;23.90;1.00
21207;DHT22;10761;48.532;8.026;2024-03-08T15:28:17;23.60;1.00
21207;DHT22;10761;48.532;8.026;2024-03-08T15:30:48;23.00;1.00
21207;DHT22;10761;48.532;8.026;2024-03-08T15:33:20;22.70;1.00
21207;DHT22;10761;48.532;8.026;2024-03-08T15:35:51;22.40;1.00
21207;DHT22;10761;48.532;8.026;2024-03-08T15:38:23;21.80;1.00
21207;DHT22;10761;48.532;8.026;2024-03-08T15:40:50;21.60;1.00
21207;DHT22;10761;48.532;8.026;2024-03-08T15:43:16;21.20;1.00
21207;DHT22;10761;48.532;8.026;2024-03-08T15:45:45;20.70;1.00
21207;DHT22;10761;48.532;8.026;2024-03-08T15:48:12;20.10;1.00
21207;DHT22;10761;48.532;8.026;2024-03-08T15:50:38;19.70;1.00
21207;DHT22;10761;48.532;8.026;2024-03-08T15:53:04;18.90;1.00
21207;DHT22;10761;48.532;8.026;2024-03-08T15:55:29;18.50;1.00
21207;DHT22;10761;48.532;8.026;2024-03-08T15:57:55;17.80;1.00
21207;DHT22;10761;48.532;8.026;2024-03-08T16:00:21;16.90;1.00